Flight Track Log - Related Links

Times and Time Zones

All times are in EDT time to prevent confusion due to time zone crossing. See the N682RW flight status page for this flight to view local times or setup timezone preferences in your user account.

Time Position Orientation Groundspeed Altitude Reporting Facility
EDT Latitude Longitude Course Direction KTS km/h feet Rate Location/Type
Fri 00:18:24 33.8589 -118.3292 336° Northwest 250 463 6,600  Level Los Angeles Center
Fri 00:19:26 33.8736 -118.4458 279° West 297 550 9,000 1,067 Climbing Los Angeles Center
Fri 00:20:39 33.8956 -118.5525 284° West 287 531 9,000  Level Los Angeles Center
Fri 00:21:41 33.9467 -118.6503 302° West 282 523 9,000  Level Los Angeles Center
Fri 00:22:00 34.2720 -118.5930 348° North  Level FlightAware Approximate
Fri 00:22:42 34.0072 -118.7092 321° Northwest 280 518 9,000  Level Los Angeles Center
Fri 00:23:00 34.3708 -118.6386 336° Northwest  Level FlightAware Approximate
Fri 00:23:44 34.0794 -118.7039 North 269 499 9,000  Level Los Angeles Center
Fri 00:24:45 34.1508 -118.6711 21° North 268 496 9,000 1,073 Level Los Angeles Center
Fri 00:25:47 34.2222 -118.6336 23° Northeast 278 515 11,200 2,293 Climbing Los Angeles Center
Fri 00:26:48 34.3164 -118.6236 North 348 644 13,700 2,754 Climbing Los Angeles Center
Fri 00:27:49 34.4131 -118.6669 340° North 374 692 16,800 2,780 Climbing Los Angeles Center
Fri 00:28:51 34.5108 -118.7161 337° Northwest 384 711 19,400 2,683 Climbing Los Angeles Center
Fri 00:29:52 34.6114 -118.7642 339° North 390 723 22,300 2,410 Climbing Los Angeles Center
Fri 00:30:53 34.7122 -118.8172 337° Northwest 395 732 24,300 2,000 Climbing Los Angeles Center
Fri 00:31:55 34.8172 -118.8692 338° Northwest 403 747 26,400 1,902 Climbing Los Angeles Center
Fri 00:32:56 34.9333 -118.9067 345° North 417 772 28,200 1,805 Climbing Los Angeles Center
Fri 00:33:58 35.0703 -118.9539 344° North 427 790 30,100 2,098 Climbing Los Angeles Center
Fri 00:34:59 35.1819 -118.9911 345° North 419 776 32,500 1,967 Climbing Los Angeles Center
Fri 00:36:00 35.2947 -119.0064 354° North 411 761 34,100 1,463 Climbing Los Angeles Center
Fri 00:37:02 35.4064 -119.0206 354° North 406 752 35,500 927 Climbing Los Angeles Center
Fri 00:38:03 35.5153 -119.0375 353° North 401 742 36,000 246 Climbing Los Angeles Center
Fri 00:39:04 35.6239 -119.0536 353° North 396 734 36,000  Level Los Angeles Center
Fri 00:40:06 35.7328 -119.0697 353° North 395 732 36,000  Level Los Angeles Center
Fri 00:41:07 35.8636 -119.0892 353° North 395 732 36,000  Level Los Angeles Center
Fri 00:42:09 35.9742 -119.1058 353° North 399 739 36,000  Level Los Angeles Center
Fri 00:43:10 36.0831 -119.1219 353° North 397 735 36,000  Level Los Angeles Center
Fri 00:44:21 36.2142 -119.1419 353° North 400 740 36,000  Level Oakland Center
Fri 00:45:22 36.3267 -119.1583 353° North 411 761 36,000  Level Oakland Center
Fri 00:46:23 36.4375 -119.1767 352° North 408 756 36,000  Level Oakland Center
Fri 00:47:24 36.5475 -119.1911 354° North 399 739 36,000  Level Oakland Center
Fri 00:48:25 36.6578 -119.2081 353° North 399 739 36,000  Level Oakland Center
Fri 00:49:26 36.7689 -119.2253 353° North 402 745 36,000  Level Oakland Center
Fri 00:50:27 36.8797 -119.2431 353° North 412 763 36,000  Level Oakland Center
Fri 00:51:28 36.9906 -119.2608 353° North 407 753 36,000  Level Oakland Center
Fri 00:52:29 37.1011 -119.2778 353° North 411 761 36,000  Level Oakland Center
Fri 00:53:29 37.2114 -119.2972 352° North 420 777 36,000  Level Oakland Center
Fri 00:54:30 37.3456 -119.3169 353° North 407 753 36,000  Level Oakland Center
Fri 00:55:31 37.4553 -119.3353 352° North 401 742 36,000  Level Oakland Center
Fri 00:56:32 37.5656 -119.3503 354° North 400 740 36,000  Level Oakland Center
Fri 00:57:33 37.6761 -119.3625 355° North 399 739 36,000  Level Oakland Center
Fri 00:58:34 37.7867 -119.3808 353° North 401 742 36,000  Level Oakland Center
Fri 00:59:35 37.8975 -119.3975 353° North 402 745 36,000  Level Oakland Center
Fri 01:00:36 38.0100 -119.4147 353° North 406 752 36,000  Level Oakland Center
Fri 01:01:36 38.1217 -119.4328 353° North 406 752 36,000  Level Oakland Center
Fri 01:02:37 38.2367 -119.4503 353° North 402 745 36,000  Level Oakland Center
Fri 01:03:38 38.3422 -119.4669 353° North 399 739 36,000  Level Oakland Center
Fri 01:04:39 38.4583 -119.4844 353° North 400 740 36,000  Level Oakland Center
Fri 01:05:40 38.5683 -119.5014 353° North 399 739 36,000  Level Oakland Center
Fri 01:06:41 38.6794 -119.5197 353° North 399 739 36,000  Level Oakland Center
Fri 01:07:41 38.7908 -119.5389 352° North 401 742 36,000  Level Oakland Center
Fri 01:08:42 38.9011 -119.5558 353° North 397 735 36,000  Level Oakland Center
Fri 01:10:00 39.0376 -119.5766 353° North  Level FlightAware Approximate
Fri 01:11:45 39.2353 -119.6078 353° North 399 739 36,000  Level Oakland Center
Fri 01:12:45 39.3447 -119.6261 353° North 397 735 36,000  Level Oakland Center
Fri 01:13:46 39.4544 -119.6442 353° North 396 734 36,000  Level Oakland Center
Fri 01:14:47 39.5619 -119.6636 352° North 392 726 36,000  Level Oakland Center
Fri 01:15:48 39.6669 -119.6944 347° North 389 721 36,000  Level Oakland Center
Fri 01:16:48 39.7725 -119.7236 348° North 387 716 36,000  Level Oakland Center
Fri 01:17:49 39.8972 -119.7581 348° North 383 710 36,000  Level Oakland Center
Fri 01:18:50 40.0003 -119.7867 348° North 379 702 36,000  Level Oakland Center
Fri 01:19:51 40.1042 -119.8156 348° North 380 703 36,000  Level Oakland Center
Fri 01:20:51 40.2081 -119.8464 347° North 381 705 36,000  Level Oakland Center
Fri 01:21:52 40.3114 -119.8750 348° North 381 705 36,000  Level Oakland Center
Fri 01:22:53 40.4164 -119.9033 348° North 382 708 36,000  Level Oakland Center
Fri 01:23:54 40.5156 -119.9336 347° North 369 684 36,000  Level Oakland Center
Fri 01:24:55 40.6067 -119.9603 347° North 368 681 36,000  Level Oakland Center
Fri 01:25:57 40.7089 -119.9878 348° North 375 695 36,000  Level Oakland Center
Fri 01:26:56 40.8136 -120.0186 347° North 384 711 36,000  Level Oakland Center
Fri 01:27:22 40.8758 -120.0375 347° North 379 702 36,000  Level Seattle Center
Fri 01:28:22 40.9797 -120.0656 348° North 380 703 36,000  Level Seattle Center
Fri 01:29:23 41.0811 -120.0958 347° North 376 697 36,000  Level Seattle Center
Fri 01:29:59 41.1425 -120.1108 350° North 378 700 36,000  Level Oakland Center
Fri 01:30:23 41.1831 -120.1264 344° North 375 695 36,000  Level Seattle Center
Fri 01:31:24 41.2833 -120.1556 348° North 373 690 36,000  Level Seattle Center
Fri 01:32:24 41.3853 -120.1842 348° North 374 692 36,000  Level Seattle Center
Fri 01:33:25 41.4856 -120.2147 347° North 371 687 36,000  Level Seattle Center
Fri 01:34:25 41.5881 -120.2444 348° North 376 697 36,000  Level Seattle Center
Fri 01:35:26 41.6903 -120.2742 348° North 377 698 36,000  Level Seattle Center
Fri 01:36:26 41.7931 -120.3031 348° North 378 700 36,000  Level Seattle Center
Fri 01:37:27 41.8936 -120.3328 348° North 374 692 36,000  Level Seattle Center
Fri 01:38:27 41.9944 -120.3617 348° North 373 690 36,000  Level Seattle Center
Fri 01:39:28 42.0953 -120.3917 348° North 372 689 36,000  Level Seattle Center
Fri 01:40:28 42.1956 -120.4214 348° North 370 686 36,000  Level Seattle Center
Fri 01:41:29 42.2969 -120.4519 347° North 374 692 36,000  Level Seattle Center
Fri 01:42:29 42.3997 -120.4828 348° North 380 703 36,000  Level Seattle Center
Fri 01:43:29 42.5011 -120.5125 348° North 376 697 36,000  Level Seattle Center
Fri 01:44:30 42.6025 -120.5472 346° North 376 697 36,000  Level Seattle Center
Fri 01:45:30 42.7053 -120.5822 346° North 381 705 36,000  Level Seattle Center
Fri 01:46:31 42.8081 -120.6125 348° North 381 705 36,000  Level Seattle Center
Fri 01:47:31 42.9119 -120.6425 348° North 381 705 36,000  Level Seattle Center
Fri 01:48:32 43.0156 -120.6747 347° North 383 710 36,000  Level Seattle Center
Fri 01:49:32 43.1169 -120.7050 348° North 378 700 36,000  Level Seattle Center
Fri 01:50:33 43.2394 -120.7411 348° North 376 697 36,000  Level Seattle Center
Fri 01:51:33 43.3431 -120.7722 348° North 379 702 36,000  Level Seattle Center
Fri 01:52:34 43.4444 -120.8003 349° North 374 692 36,000  Level Seattle Center
Fri 01:53:34 43.5458 -120.8336 347° North 375 695 36,000  Level Seattle Center
Fri 01:54:34 43.6389 -120.8606 348° North 372 689 36,000  Level Seattle Center
Fri 01:55:35 43.7425 -120.8917 348° North 379 702 36,000  Level Seattle Center
Fri 01:56:35 43.8458 -120.9250 347° North 381 705 36,000  Level Seattle Center
Fri 01:57:36 43.9472 -120.9564 347° North 376 697 36,000  Level Seattle Center
Fri 01:58:36 44.0511 -120.9883 348° North 380 703 36,000  Level Seattle Center
Fri 01:59:37 44.1528 -121.0211 347° North 377 698 36,000  Level Seattle Center
Fri 02:00:37 44.2522 -121.0506 348° North 367 679 36,000  Level Seattle Center
Fri 02:01:37 44.3619 -121.0853 347° North 374 692 36,000  Level Seattle Center
Fri 02:02:38 44.4608 -121.1161 347° North 369 684 36,000  Level Seattle Center
Fri 02:03:38 44.5617 -121.1486 347° North 371 687 36,000  Level Seattle Center
Fri 02:04:39 44.6561 -121.1781 347° North 370 686 36,000  Level Seattle Center
Fri 02:05:39 44.7564 -121.2106 347° North 370 686 36,000  Level Seattle Center
Fri 02:06:39 44.8561 -121.2417 348° North 368 681 36,000  Level Seattle Center
Fri 02:07:40 44.9553 -121.2747 347° North 367 679 36,000  Level Seattle Center
Fri 02:08:40 45.0550 -121.3050 348° North 365 676 36,000  Level Seattle Center
Fri 02:09:41 45.1533 -121.3375 347° North 363 673 36,000  Level Seattle Center
Fri 02:10:41 45.2533 -121.3694 347° North 365 676 36,000  Level Seattle Center
Fri 02:11:42 45.3531 -121.4019 347° North 366 678 36,000  Level Seattle Center
Fri 02:12:42 45.4736 -121.4406 347° North 368 681 36,000  Level Seattle Center
Fri 02:13:43 45.5747 -121.4739 347° North 371 687 36,000  Level Seattle Center
Fri 02:14:43 45.6753 -121.5086 346° North 371 687 36,000  Level Seattle Center
Fri 02:15:43 45.7756 -121.5414 347° North 370 686 36,000  Level Seattle Center
Fri 02:16:44 45.8761 -121.5747 347° North 371 687 36,000  Level Seattle Center
Fri 02:17:44 45.9800 -121.6089 347° North 381 705 36,000  Level Seattle Center
Fri 02:18:45 46.0814 -121.6425 347° North 376 697 36,000  Level Seattle Center
Fri 02:19:45 46.1833 -121.6767 347° North 378 700 36,000  Level Seattle Center
Fri 02:20:46 46.2792 -121.7083 347° North 383 710 36,000  Level Seattle Center
Fri 02:21:46 46.3792 -121.7431 347° North 376 697 36,000  Level Seattle Center
Fri 02:22:46 46.4814 -121.7758 348° North 381 705 36,000  Level Seattle Center
Fri 02:23:47 46.5819 -121.8103 347° North 378 700 36,000  Level Seattle Center
Fri 02:24:47 46.6836 -121.8453 347° North 380 703 36,000  Level Seattle Center
Fri 02:25:48 46.7847 -121.8814 346° North 379 702 36,000  Level Seattle Center
Fri 02:26:48 46.9086 -121.9244 347° North 385 713 36,000  Level Seattle Center
Fri 02:27:48 47.0111 -121.9578 347° North 384 711 36,000  Level Seattle Center
Fri 02:28:49 47.1139 -121.9947 346° North 384 711 36,000  Level Seattle Center
Fri 02:29:49 47.2181 -122.0306 347° North 388 719 36,000  Level Seattle Center
Fri 02:30:50 47.3217 -122.0683 346° North 390 723 36,000  Level Seattle Center
Fri 02:31:50 47.4258 -122.1042 347° North 390 723 36,000 -200 Level Seattle Center
Fri 02:32:50 47.5311 -122.1428 346° North 396 734 35,600 -1,190 Descending Seattle Center
Fri 02:33:51 47.6358 -122.1775 347° North 397 735 33,600 -2,579 Descending Seattle Center
Fri 02:34:51 47.7442 -122.2158 347° North 408 756 30,400 -2,950 Descending Seattle Center
Fri 02:35:51 47.8739 -122.2631 346° North 411 761 27,700 -2,628 Descending Seattle Center
Fri 02:36:52 47.9778 -122.2967 348° North 392 726 25,100 -2,479 Descending Seattle Center
Fri 02:37:52 48.0800 -122.3264 349° North 383 710 22,700 -2,350 Descending Seattle Center
Fri 02:38:52 48.1803 -122.3550 349° North 375 695 20,400 -2,281 Descending Seattle Center
Fri 02:39:53 48.2786 -122.3836 349° North 367 679 18,100 -1,835 Descending Seattle Center
Fri 02:40:53 48.3717 -122.4108 349° North 350 649 16,700 -1,450 Descending Seattle Center
Fri 02:41:53 48.4644 -122.4389 349° North 345 639 15,200 -1,438 Descending Seattle Center
Fri 02:42:54 48.5550 -122.4642 350° North 338 626 13,800 -1,438 Descending Seattle Center
Fri 02:43:54 48.6428 -122.4914 348° North 330 612 12,300 -1,009 Descending Seattle Center
Fri 02:44:47 48.7167 -122.5333 339° North 320 592 11,900 -478 Descending Vancouver Center
Fri 02:45:47 48.7667 -122.6333 307° West 320 592 11,400 -850 Descending Vancouver Center
Fri 02:46:47 48.8167 -122.7333 307° West 310 575 10,200 -750 Descending Vancouver Center
Fri 02:47:47 48.8667 -122.8167 312° West 300 555 9,900 -100 Descending Vancouver Center
Fri 02:48:47 48.9167 -122.9167 307° West 270 501 10,000 50 Climbing Vancouver Center
Fri 02:49:47 48.9667 -122.9833 319° Northwest 270 501 10,000 -100 Level Vancouver Center
Fri 02:50:47 49.0167 -123.0833 307° West 270 501 9,800 -700 Descending Vancouver Center
Fri 02:51:47 49.0667 -123.1667 312° West 260 481 8,600 -1,250 Descending Vancouver Center
Fri 02:52:47 49.0833 -123.2667 284° West 230 426 7,300 -1,450 Descending Vancouver Center
Fri 02:53:47 49.0833 -123.3333 270° West 200 370 5,700 -1,800 Descending Vancouver Center
Fri 02:54:47 49.1000 -123.4167 287° West 190 352 3,700 -1,700 Descending Vancouver Center
Fri 02:55:47 49.1333 -123.5000 301° West 180 333 2,300 -850 Descending Vancouver Center
Fri 02:56:47 49.1833 -123.4667 24° Northeast 190 352 2,000 -300 Descending Vancouver Center

Login

Don't have an account? Register now (free) for customized features, flight alerts, and more!